createdAt,value
2018-11-20T00:01:08.815Z,3.92
2018-11-20T00:03:57.180Z,3.93
2018-11-20T00:06:36.612Z,4.03
2018-11-20T00:09:27.783Z,4.07
2018-11-20T00:12:23.161Z,4.04
2018-11-20T00:15:11.285Z,4.09
2018-11-20T00:18:13.709Z,4.11
2018-11-20T00:21:10.566Z,4.17
2018-11-20T00:23:58.898Z,4.10
2018-11-20T00:26:47.457Z,4.08
2018-11-20T00:29:47.414Z,4.06
2018-11-20T00:32:42.196Z,4.03
2018-11-20T00:35:50.379Z,4.04
2018-11-20T00:38:40.163Z,4.06
2018-11-20T00:41:39.332Z,4.05
2018-11-20T00:44:27.821Z,4.06
2018-11-20T00:47:16.552Z,4.07
2018-11-20T00:50:18.866Z,4.10
2018-11-20T00:53:07.440Z,4.07
2018-11-20T00:56:39.082Z,4.12
2018-11-20T00:59:27.346Z,4.22
2018-11-20T01:02:26.105Z,4.19
2018-11-20T01:05:24.296Z,4.17
2018-11-20T01:08:29.044Z,4.16
2018-11-20T01:11:19.090Z,4.13
2018-11-20T01:14:17.711Z,4.20
2018-11-20T01:17:13.855Z,4.16
2018-11-20T01:20:07.699Z,4.17
2018-11-20T01:22:48.372Z,4.21
2018-11-20T01:25:47.661Z,4.26
2018-11-20T01:28:35.719Z,4.26
2018-11-20T01:31:28.902Z,4.26
2018-11-20T01:34:36.715Z,4.22
2018-11-20T01:37:29.704Z,4.25
2018-11-20T01:40:28.733Z,4.24
2018-11-20T01:43:16.085Z,4.21
2018-11-20T01:46:16.739Z,4.19
2018-11-20T01:49:08.383Z,4.20
2018-11-20T01:51:58.025Z,4.26
2018-11-20T01:54:46.339Z,4.27
2018-11-20T01:57:48.132Z,4.26
2018-11-20T02:00:36.079Z,4.30
2018-11-20T02:03:26.518Z,4.29
2018-11-20T02:06:28.321Z,4.26
2018-11-20T02:09:25.456Z,4.26
2018-11-20T02:12:24.244Z,4.26
2018-11-20T02:15:12.912Z,4.28
2018-11-20T02:18:09.352Z,4.30
2018-11-20T02:21:09.474Z,4.26
2018-11-20T02:24:05.767Z,4.30
2018-11-20T02:27:04.857Z,4.35
2018-11-20T02:29:54.057Z,4.30
2018-11-20T02:32:42.404Z,4.30
2018-11-20T02:35:34.514Z,4.30
2018-11-20T02:38:22.817Z,4.32
2018-11-20T02:41:11.038Z,4.28
2018-11-20T02:44:01.074Z,4.32
2018-11-20T02:46:42.026Z,4.33
2018-11-20T02:49:46.735Z,4.36
2018-11-20T02:52:45.436Z,4.35
2018-11-20T02:55:49.606Z,4.34
2018-11-20T02:58:48.095Z,4.32
2018-11-20T03:01:44.199Z,4.35
2018-11-20T03:04:46.585Z,4.36
2018-11-20T03:07:35.382Z,4.34
2018-11-20T03:10:24.662Z,4.37
2018-11-20T03:13:33.381Z,4.38
2018-11-20T03:16:15.998Z,4.36
2018-11-20T03:18:56.535Z,4.36
2018-11-20T03:21:44.281Z,4.36
2018-11-20T03:24:42.544Z,4.39
2018-11-20T03:27:30.080Z,4.40
2018-11-20T03:31:00.959Z,4.42
2018-11-20T03:33:41.660Z,4.45
2018-11-20T03:36:34.248Z,4.46
2018-11-20T03:39:25.306Z,4.41
2018-11-20T03:42:17.695Z,4.39
2018-11-20T03:45:17.117Z,4.41
2018-11-20T03:48:06.187Z,4.42
2018-11-20T03:51:01.850Z,4.35
2018-11-20T03:54:00.324Z,4.36
2018-11-20T03:56:56.388Z,4.36
2018-11-20T03:59:48.826Z,4.40
2018-11-20T04:02:42.265Z,4.34
2018-11-20T04:05:30.764Z,4.33
2018-11-20T04:08:30.430Z,4.34
2018-11-20T04:11:19.692Z,4.30
2018-11-20T04:14:16.678Z,4.27
2018-11-20T04:17:05.171Z,4.23
2018-11-20T04:19:51.941Z,4.20
2018-11-20T04:22:56.630Z,4.12
2018-11-20T04:26:00.275Z,4.07
2018-11-20T04:28:59.317Z,4.05
2018-11-20T04:32:13.619Z,4.03
2018-11-20T04:35:17.705Z,3.99
2018-11-20T04:38:31.839Z,3.93
2018-11-20T04:41:11.783Z,3.90
2018-11-20T04:44:07.746Z,3.90
2018-11-20T04:46:56.343Z,3.85
2018-11-20T04:49:52.055Z,3.90
2018-11-20T04:52:34.050Z,3.90
2018-11-20T04:55:23.773Z,3.78
2018-11-20T04:58:14.613Z,3.77
2018-11-20T05:01:21.584Z,3.73
2018-11-20T05:04:15.462Z,3.70
2018-11-20T05:07:13.845Z,3.60
2018-11-20T05:10:17.756Z,3.64
2018-11-20T05:13:05.678Z,3.59
2018-11-20T05:16:07.977Z,3.54
2018-11-20T05:18:57.749Z,3.47
2018-11-20T05:21:41.154Z,3.51
2018-11-20T05:24:34.754Z,3.40
2018-11-20T05:27:13.321Z,3.38
2018-11-20T05:30:09.615Z,3.42
2018-11-20T05:33:11.212Z,3.36
2018-11-20T05:36:00.530Z,3.43
2018-11-20T05:39:05.838Z,3.42
2018-11-20T05:42:07.985Z,3.42
2018-11-20T05:44:58.098Z,3.41
2018-11-20T05:47:43.411Z,3.38
2018-11-20T05:50:32.308Z,3.44
2018-11-20T05:53:21.514Z,3.40
2018-11-20T05:56:17.662Z,3.30
2018-11-20T05:58:55.975Z,3.32
2018-11-20T06:01:54.884Z,3.38
2018-11-20T06:04:43.627Z,3.40
2018-11-20T06:07:22.258Z,3.34
2018-11-20T06:10:11.100Z,3.36
2018-11-20T06:13:11.533Z,3.28
2018-11-20T06:15:59.772Z,3.24
2018-11-20T06:18:49.551Z,3.15
2018-11-20T06:21:38.888Z,3.22
2018-11-20T06:24:32.288Z,3.26
2018-11-20T06:27:21.031Z,3.26
2018-11-20T06:30:10.413Z,3.25
2018-11-20T06:32:50.624Z,3.20
2018-11-20T06:35:32.074Z,3.26
2018-11-20T06:38:21.452Z,3.27
2018-11-20T06:41:17.338Z,3.34
2018-11-20T06:44:01.361Z,3.30
2018-11-20T06:46:55.521Z,3.31
2018-11-20T06:49:39.012Z,3.32
2018-11-20T06:52:27.444Z,3.34
2018-11-20T06:55:27.733Z,3.27
2018-11-20T06:58:09.080Z,3.27
2018-11-20T07:01:06.098Z,3.30
2018-11-20T07:03:56.199Z,3.32
2018-11-20T07:06:45.003Z,3.35
2018-11-20T07:09:31.997Z,3.34
2018-11-20T07:12:21.008Z,3.34
2018-11-20T07:15:09.943Z,3.32
2018-11-20T07:17:57.990Z,3.28
2018-11-20T07:20:46.681Z,3.30
2018-11-20T07:23:45.820Z,3.29
2018-11-20T07:26:44.320Z,3.29
2018-11-20T07:29:42.817Z,3.30
2018-11-20T07:32:42.577Z,3.27
2018-11-20T07:35:41.360Z,3.27
2018-11-20T07:38:49.407Z,3.34
2018-11-20T07:41:42.381Z,3.35
2018-11-20T07:44:31.093Z,3.35
2018-11-20T07:47:14.996Z,3.35
2018-11-20T07:49:59.425Z,3.38
2018-11-20T07:52:47.791Z,3.40
2018-11-20T07:55:51.333Z,3.35
2018-11-20T07:58:53.261Z,3.35
2018-11-20T08:01:36.615Z,3.33
2018-11-20T08:04:19.897Z,3.25
2018-11-20T08:07:03.217Z,3.27
2018-11-20T08:09:49.873Z,3.27
2018-11-20T08:12:39.630Z,3.33
2018-11-20T08:15:32.148Z,3.30
2018-11-20T08:18:22.476Z,3.35
2018-11-20T08:21:12.709Z,3.33
2018-11-20T08:24:01.380Z,3.34
2018-11-20T08:26:44.869Z,3.34
2018-11-20T08:29:34.061Z,3.35
2018-11-20T08:32:33.316Z,3.36
2018-11-20T08:35:15.068Z,3.36
2018-11-20T08:38:03.572Z,3.36
2018-11-20T08:41:04.411Z,3.37
2018-11-20T08:44:00.395Z,3.39
2018-11-20T08:46:43.429Z,3.35
2018-11-20T08:49:46.025Z,3.27
2018-11-20T08:52:34.551Z,3.33
2018-11-20T08:55:35.081Z,3.29
2018-11-20T08:58:30.702Z,3.28
2018-11-20T09:01:22.311Z,3.32
2018-11-20T09:04:18.084Z,3.30
2018-11-20T09:07:06.711Z,3.29
2018-11-20T09:09:59.404Z,3.28
2018-11-20T09:12:52.285Z,3.31
2018-11-20T09:15:41.016Z,3.38
2018-11-20T09:18:45.705Z,3.41
2018-11-20T09:21:25.146Z,3.37
2018-11-20T09:24:33.142Z,3.37
2018-11-20T09:27:31.989Z,3.35
2018-11-20T09:30:12.101Z,3.35
2018-11-20T09:32:54.380Z,3.38
2018-11-20T09:35:47.008Z,3.42
2018-11-20T09:38:37.022Z,3.40
2018-11-20T09:41:32.652Z,3.39
2018-11-20T09:44:57.049Z,3.39
2018-11-20T09:47:41.717Z,3.43
2018-11-20T09:50:26.182Z,3.42
2018-11-20T09:53:27.981Z,3.41
2018-11-20T09:56:33.812Z,3.40
2018-11-20T09:59:15.066Z,3.41
2018-11-20T10:01:55.320Z,3.46
2018-11-20T10:04:43.493Z,3.48
2018-11-20T10:07:40.205Z,3.53
2018-11-20T10:10:44.210Z,3.52
2018-11-20T10:13:34.412Z,3.56
2018-11-20T10:16:39.779Z,3.54
2018-11-20T10:19:33.129Z,3.53
2018-11-20T10:22:38.267Z,3.50
2018-11-20T10:25:31.273Z,3.46
2018-11-20T10:28:20.350Z,3.51
2018-11-20T10:31:09.148Z,3.52
2018-11-20T10:34:08.498Z,3.52
2018-11-20T10:36:56.673Z,3.55
2018-11-20T10:39:46.098Z,3.63
2018-11-20T10:42:45.001Z,3.68
2018-11-20T10:45:33.535Z,3.71
2018-11-20T10:48:25.347Z,3.74
2018-11-20T10:51:14.207Z,3.80
2018-11-20T10:54:13.289Z,3.92
2018-11-20T10:57:05.740Z,3.91
2018-11-20T11:00:04.494Z,4.02
2018-11-20T11:02:53.099Z,4.02
2018-11-20T11:05:51.492Z,4.05
2018-11-20T11:08:40.994Z,4.13
2018-11-20T11:11:22.678Z,4.16
2018-11-20T11:14:12.211Z,4.22
2018-11-20T11:17:11.110Z,4.18
2018-11-20T11:19:59.304Z,4.13
2018-11-20T11:22:47.768Z,4.12
2018-11-20T11:25:35.972Z,4.20
2018-11-20T11:28:32.766Z,4.22
2018-11-20T11:31:22.758Z,4.29
2018-11-20T11:34:21.422Z,4.24
2018-11-20T11:37:00.024Z,4.20
2018-11-20T11:39:43.202Z,4.14
2018-11-20T11:42:27.114Z,4.08
2018-11-20T11:45:29.197Z,4.07
2018-11-20T11:48:15.058Z,4.09
2018-11-20T11:51:05.040Z,4.14
2018-11-20T11:53:43.569Z,4.18
2018-11-20T11:56:31.775Z,4.08
2018-11-20T11:59:31.038Z,4.05
2018-11-20T12:05:08.583Z,4.02
2018-11-20T12:08:01.679Z,4.10
2018-11-20T12:10:50.701Z,4.11
2018-11-20T12:13:39.847Z,4.12
2018-11-20T12:16:29.605Z,4.11
2018-11-20T12:19:19.230Z,4.10
2018-11-20T12:22:07.424Z,4.14
2018-11-20T12:25:02.859Z,4.15
2018-11-20T12:27:53.043Z,4.22
2018-11-20T12:30:55.488Z,4.22
2018-11-20T12:33:41.986Z,4.31
2018-11-20T12:36:32.807Z,4.19
2018-11-20T12:39:21.811Z,4.20
2018-11-20T12:42:00.326Z,4.24
2018-11-20T12:44:48.743Z,4.23
2018-11-20T12:47:37.542Z,4.26
2018-11-20T12:50:30.438Z,4.30
2018-11-20T12:53:25.981Z,4.26
2018-11-20T12:56:34.408Z,4.22
2018-11-20T12:59:40.033Z,4.19
2018-11-20T13:02:30.821Z,4.17
2018-11-20T13:05:25.127Z,4.15
2018-11-20T13:08:18.028Z,4.09
2018-11-20T13:11:22.981Z,4.11
2018-11-20T13:14:28.923Z,4.00
2018-11-20T13:17:19.678Z,3.99
2018-11-20T13:20:08.223Z,3.93
2018-11-20T13:23:16.558Z,3.92
2018-11-20T13:27:46.667Z,3.97
2018-11-20T13:30:41.633Z,3.90
2018-11-20T13:33:31.948Z,3.95
2018-11-20T13:36:19.918Z,3.96
2018-11-20T13:39:07.288Z,3.99
2018-11-20T13:42:06.944Z,3.90
2018-11-20T13:45:05.635Z,3.92
2018-11-20T13:48:12.624Z,3.87
2018-11-20T13:51:14.070Z,3.85
2018-11-20T13:54:14.987Z,3.83
2018-11-20T13:57:09.779Z,3.84
2018-11-20T14:00:01.402Z,3.87
2018-11-20T14:02:46.467Z,3.84
2018-11-20T14:05:27.514Z,3.74
2018-11-20T14:08:21.552Z,3.72
2018-11-20T14:11:09.804Z,3.72
2018-11-20T14:14:01.271Z,3.71
2018-11-20T14:16:50.133Z,3.76
2018-11-20T14:19:38.400Z,3.72
2018-11-20T14:22:25.907Z,3.70
2018-11-20T14:25:14.635Z,3.70
2018-11-20T14:28:08.886Z,3.67
2018-11-20T14:31:10.098Z,3.66
2018-11-20T14:33:58.957Z,3.67
2018-11-20T14:36:53.828Z,3.64
2018-11-20T14:39:57.969Z,3.67
2018-11-20T14:42:42.674Z,3.69
2018-11-20T14:45:31.961Z,3.64
2018-11-20T14:48:32.908Z,3.70
2018-11-20T14:51:11.746Z,3.66
2018-11-20T14:54:03.431Z,3.62
2018-11-20T14:56:55.959Z,3.60
2018-11-20T14:59:43.568Z,3.65
2018-11-20T15:02:50.962Z,3.59
2018-11-20T15:05:38.916Z,3.59
2018-11-20T15:08:26.751Z,3.57
2018-11-20T15:11:14.516Z,3.61
2018-11-20T15:14:02.501Z,3.56
2018-11-20T15:17:03.543Z,3.58
2018-11-20T15:20:02.390Z,3.57
2018-11-20T15:22:57.328Z,3.59
2018-11-20T15:25:48.891Z,3.54
2018-11-20T15:28:37.044Z,3.54
2018-11-20T15:31:26.704Z,3.58
2018-11-20T15:34:16.096Z,3.57
2018-11-20T15:37:03.513Z,3.48
2018-11-20T15:40:07.741Z,3.54
2018-11-20T15:42:56.804Z,3.54
2018-11-20T15:45:42.736Z,3.54
2018-11-20T15:48:41.354Z,3.46
2018-11-20T15:51:29.394Z,3.49
2018-11-20T15:54:30.952Z,3.50
2018-11-20T15:57:21.219Z,3.51
2018-11-20T16:00:13.104Z,3.50
2018-11-20T16:03:00.850Z,3.50
2018-11-20T16:05:48.364Z,3.47
2018-11-20T16:08:36.761Z,3.47
2018-11-20T16:11:38.087Z,3.47
2018-11-20T16:14:26.969Z,3.47
2018-11-20T16:17:18.748Z,3.47
2018-11-20T16:20:23.576Z,3.47
2018-11-20T16:23:11.489Z,3.47
2018-11-20T16:26:03.647Z,3.48
2018-11-20T16:28:51.588Z,3.39
2018-11-20T16:31:41.256Z,3.41
2018-11-20T16:34:37.155Z,3.39
2018-11-20T16:37:25.821Z,3.36
2018-11-20T16:40:11.308Z,3.40
2018-11-20T16:43:19.224Z,3.40
2018-11-20T16:46:17.686Z,3.44
2018-11-20T16:49:05.745Z,3.36
2018-11-20T16:52:00.431Z,3.36
2018-11-20T16:54:49.287Z,3.40
2018-11-20T16:57:53.459Z,3.34
2018-11-20T17:00:42.162Z,3.31
2018-11-20T17:03:29.899Z,3.34
2018-11-20T17:06:22.012Z,3.32
2018-11-20T17:09:09.764Z,3.30
2018-11-20T17:11:57.390Z,3.33
2018-11-20T17:14:48.987Z,3.38
2018-11-20T17:17:36.488Z,3.35
2018-11-20T17:20:34.206Z,3.33
2018-11-20T17:23:22.532Z,3.28
2018-11-20T17:26:14.076Z,3.30
2018-11-20T17:29:09.059Z,3.28
2018-11-20T17:31:56.945Z,3.31
2018-11-20T17:35:01.540Z,3.27
2018-11-20T17:37:49.565Z,3.29
2018-11-20T17:40:49.938Z,3.25
2018-11-20T17:43:37.820Z,3.21
2018-11-20T17:46:26.078Z,3.19
2018-11-20T17:49:21.175Z,3.17
2018-11-20T17:52:28.141Z,3.13
2018-11-20T17:55:10.182Z,3.13
2018-11-20T17:57:57.556Z,3.12
2018-11-20T18:00:37.704Z,3.05
2018-11-20T18:03:27.029Z,3.08
2018-11-20T18:06:14.409Z,3.06
2018-11-20T18:09:03.355Z,3.11
2018-11-20T18:11:58.141Z,3.08
2018-11-20T18:14:39.722Z,3.00
2018-11-20T18:17:27.535Z,2.95
2018-11-20T18:20:31.733Z,2.95
2018-11-20T18:23:20.734Z,2.90
2018-11-20T18:26:13.293Z,2.88
2018-11-20T18:29:01.433Z,2.85
2018-11-20T18:32:05.279Z,2.89
2018-11-20T18:34:53.259Z,2.87
2018-11-20T18:37:55.110Z,2.81
2018-11-20T18:40:44.511Z,2.75
2018-11-20T18:43:32.622Z,2.77
2018-11-20T18:46:25.018Z,2.73
2018-11-20T18:49:16.459Z,2.71
2018-11-20T18:52:05.152Z,2.68
2018-11-20T18:54:58.065Z,2.72
2018-11-20T18:57:49.614Z,2.74
2018-11-20T19:00:38.324Z,2.68
2018-11-20T19:03:30.633Z,2.67
2018-11-20T19:06:20.459Z,2.73
2018-11-20T19:09:18.870Z,2.69
2018-11-20T19:12:06.390Z,2.71
2018-11-20T19:14:54.939Z,2.73
2018-11-20T19:17:47.945Z,2.69
2018-11-20T19:20:36.829Z,2.63
2018-11-20T19:23:28.703Z,2.63
2018-11-20T19:26:22.582Z,2.68
2018-11-20T19:29:30.900Z,2.66
2018-11-20T19:32:13.617Z,2.64
2018-11-20T19:35:05.077Z,2.62
2018-11-20T19:38:03.039Z,2.61
2018-11-20T19:40:55.141Z,2.61
2018-11-20T19:43:47.021Z,2.65
2018-11-20T19:46:36.244Z,2.68
2018-11-20T19:49:14.844Z,2.63
2018-11-20T19:52:02.869Z,2.67
2018-11-20T19:54:51.061Z,2.67
2018-11-20T19:57:43.256Z,2.67
2018-11-20T20:00:32.346Z,2.69
2018-11-20T20:03:24.575Z,2.60
2018-11-20T20:06:16.697Z,2.67
2018-11-20T20:09:20.422Z,2.67
2018-11-20T20:12:27.500Z,2.70
2018-11-20T20:15:20.419Z,2.65
2018-11-20T20:18:08.635Z,2.66
2018-11-20T20:21:10.536Z,2.62
2018-11-20T20:24:07.305Z,2.63
2018-11-20T20:26:52.873Z,2.60
2018-11-20T20:29:40.703Z,2.61
2018-11-20T20:32:20.142Z,2.69
2018-11-20T20:35:26.975Z,2.67
2018-11-20T20:38:16.687Z,2.62
2018-11-20T20:41:05.594Z,2.59
2018-11-20T20:43:58.073Z,2.64
2018-11-20T20:46:55.119Z,2.68
2018-11-20T20:49:51.385Z,2.63
2018-11-20T20:52:39.026Z,2.61
2018-11-20T20:55:26.835Z,2.65
2018-11-20T20:58:14.501Z,2.63
2018-11-20T21:01:06.486Z,2.60
2018-11-20T21:04:02.726Z,2.59
2018-11-20T21:06:45.857Z,2.59
2018-11-20T21:09:33.924Z,2.66
2018-11-20T21:12:20.280Z,2.61
2018-11-20T21:15:20.977Z,2.66
2018-11-20T21:18:10.940Z,2.69
2018-11-20T21:21:05.897Z,2.69
2018-11-20T21:23:55.546Z,2.70
2018-11-20T21:26:40.821Z,2.68
2018-11-20T21:29:26.746Z,2.68
2018-11-20T21:32:12.628Z,2.65
2018-11-20T21:34:59.823Z,2.65
2018-11-20T21:37:49.004Z,2.64
2018-11-20T21:40:37.500Z,2.65
2018-11-20T21:43:27.356Z,2.70
2018-11-20T21:46:16.099Z,2.75
2018-11-20T21:49:12.193Z,2.73
2018-11-20T21:52:16.367Z,2.78
2018-11-20T21:54:54.283Z,2.71
2018-11-20T21:57:52.839Z,2.71
2018-11-20T22:00:55.823Z,2.72
2018-11-20T22:03:50.502Z,2.66
2018-11-20T22:06:41.578Z,2.69
2018-11-20T22:09:33.406Z,2.72
2018-11-20T22:12:39.121Z,2.73
2018-11-20T22:15:43.712Z,2.76
2018-11-20T22:18:31.566Z,2.77
2018-11-20T22:21:29.375Z,2.73
2018-11-20T22:24:17.028Z,2.76
2018-11-20T22:27:08.833Z,2.78
2018-11-20T22:30:01.004Z,2.79
2018-11-20T22:32:52.557Z,2.76
2018-11-20T22:35:47.500Z,2.76
2018-11-20T22:38:41.344Z,2.82
2018-11-20T22:41:29.046Z,2.77
2018-11-20T22:44:23.145Z,2.79
2018-11-20T22:47:12.732Z,2.79
2018-11-20T22:49:59.643Z,2.78
2018-11-20T22:52:52.849Z,2.80
2018-11-20T22:55:40.497Z,2.79
2018-11-20T22:58:35.727Z,2.79
2018-11-20T23:01:27.481Z,2.84
2018-11-20T23:04:14.767Z,2.81
2018-11-20T23:07:10.213Z,2.81
2018-11-20T23:09:40.838Z,2.80
2018-11-20T23:12:17.404Z,2.83
2018-11-20T23:14:49.080Z,2.83
2018-11-20T23:17:24.967Z,2.79
2018-11-20T23:19:55.241Z,2.83
2018-11-20T23:22:28.266Z,2.77
2018-11-20T23:24:59.193Z,2.78
2018-11-20T23:27:29.307Z,2.80
2018-11-20T23:29:59.602Z,2.78
2018-11-20T23:32:29.513Z,2.84
2018-11-20T23:35:00.444Z,2.78
2018-11-20T23:37:30.257Z,2.78
2018-11-20T23:40:00.499Z,2.76
2018-11-20T23:42:32.219Z,2.80
2018-11-20T23:45:02.087Z,2.80
2018-11-20T23:47:32.174Z,2.80
2018-11-20T23:50:02.841Z,2.78
2018-11-20T23:52:32.891Z,2.83
2018-11-20T23:55:02.818Z,2.83
2018-11-20T23:57:32.682Z,2.77
